Time;durP1;ratioP1;P1;durP2;ratioP2;P2;SDS_P1;SDS_P2;PMS_P1;PMS_P2;Temp;Humidity;BMP_temperature;BMP_pressure;BME280_temperature;BME280_humidity;BME280_pressure;Samples;Min_cycle;Max_cycle;Signal;HPM_P1;HPM_P2
2022/08/04 00:01:16;;;;;;;7.28;3.60;;;21.70;71.40;;;;;;5012500;28;20554;-65
2022/08/04 00:03:51;;;;;;;6.75;3.33;;;21.60;72.00;;;;;;5038660;28;20029;-65
2022/08/04 00:06:28;;;;;;;7.78;3.55;;;21.50;72.20;;;;;;5038460;28;20022;-65
2022/08/04 00:08:59;;;;;;;7.95;3.30;;;21.40;71.70;;;;;;5038752;28;20025;-65
2022/08/04 00:11:30;;;;;;;7.28;3.30;;;21.40;71.80;;;;;;5038422;28;20022;-65
2022/08/04 00:14:04;;;;;;;7.05;3.17;;;21.30;71.60;;;;;;5038373;28;20044;-65
2022/08/04 00:16:35;;;;;;;6.97;3.17;;;21.20;71.10;;;;;;5038282;28;20025;-65
2022/08/04 00:19:04;;;;;;;5.47;3.00;;;21.20;71.90;;;;;;5038309;28;20049;-65
2022/08/04 00:21:37;;;;;;;7.03;3.20;;;21.10;73.40;;;;;;5038325;28;20064;-65
2022/08/04 00:24:04;;;;;;;6.75;3.30;;;21.00;71.80;;;;;;5037684;28;20026;-65
2022/08/04 00:26:32;;;;;;;7.80;3.22;;;21.00;72.40;;;;;;5038338;28;20032;-65
2022/08/04 00:28:59;;;;;;;6.20;2.88;;;20.90;72.10;;;;;;5038116;28;20053;-65
2022/08/04 00:31:26;;;;;;;6.53;3.28;;;20.90;72.30;;;;;;5038184;28;20079;-65
2022/08/04 00:33:53;;;;;;;5.75;3.03;;;20.80;72.00;;;;;;5037974;28;20088;-65
2022/08/04 00:36:20;;;;;;;6.15;3.20;;;20.80;73.70;;;;;;5038188;28;20029;-65
2022/08/04 00:38:46;;;;;;;7.43;3.40;;;20.70;72.60;;;;;;5037926;28;20029;-65
2022/08/04 00:41:34;;;;;;;8.45;3.53;;;20.70;73.00;;;;;;5037872;28;20031;-65
2022/08/04 00:44:20;;;;;;;8.93;3.60;;;20.60;72.80;;;;;;5037369;28;20033;-65
2022/08/04 00:47:17;;;;;;;7.32;3.45;;;20.60;72.00;;;;;;5037913;28;20068;-65
2022/08/04 00:49:57;;;;;;;6.05;3.30;;;20.60;70.90;;;;;;5037740;28;20036;-65
2022/08/04 00:52:44;;;;;;;7.15;3.42;;;20.50;71.60;;;;;;5037635;28;20119;-65
2022/08/04 00:55:48;;;;;;;7.45;3.38;;;20.40;73.00;;;;;;5037620;28;20105;-65
2022/08/04 00:58:39;;;;;;;6.65;3.08;;;20.40;72.60;;;;;;5000621;28;20038;-65
2022/08/04 01:01:13;;;;;;;7.18;3.50;;;20.40;72.00;;;;;;5036865;28;20477;-65
2022/08/04 01:03:47;;;;;;;6.95;3.50;;;20.30;71.70;;;;;;5036491;28;20034;-65
2022/08/04 01:06:37;;;;;;;6.88;3.70;;;20.30;70.90;;;;;;5037133;28;20026;-65
2022/08/04 01:09:33;;;;;;;7.88;3.88;;;20.20;72.00;;;;;;5037312;28;20096;-65
2022/08/04 01:12:27;;;;;;;6.80;3.45;;;20.20;71.80;;;;;;5037409;28;20032;-65
2022/08/04 01:15:06;;;;;;;8.35;3.50;;;20.10;72.80;;;;;;5037234;28;20021;-65
2022/08/04 01:17:35;;;;;;;8.73;3.83;;;20.10;71.80;;;;;;5037600;28;20084;-65
2022/08/04 01:20:08;;;;;;;7.13;3.33;;;20.10;72.30;;;;;;5037551;28;20022;-65
2022/08/04 01:22:37;;;;;;;8.02;3.72;;;20.00;72.60;;;;;;5037726;28;20108;-65
2022/08/04 01:25:12;;;;;;;8.30;4.10;;;19.90;72.30;;;;;;5037506;28;20105;-65
2022/08/04 01:28:00;;;;;;;8.55;3.83;;;19.90;74.10;;;;;;5037535;28;20465;-65
2022/08/04 01:30:26;;;;;;;8.13;3.80;;;19.90;72.40;;;;;;5037426;28;20026;-65
2022/08/04 01:33:01;;;;;;;6.80;3.47;;;19.90;73.50;;;;;;5038453;28;20060;-65
2022/08/04 01:35:45;;;;;;;9.45;4.00;;;19.90;72.10;;;;;;5041836;28;20099;-65
2022/08/04 01:38:11;;;;;;;;;;;19.90;73.40;;;;;;5041738;28;20029;-65
2022/08/04 01:40:38;;;;;;;8.55;4.22;;;19.90;71.70;;;;;;5041471;28;19911;-65
2022/08/04 01:43:04;;;;;;;6.88;3.50;;;19.90;72.00;;;;;;5041289;28;20028;-65
2022/08/04 01:45:30;;;;;;;7.70;3.50;;;19.80;71.80;;;;;;5041382;28;20033;-65
2022/08/04 01:47:57;;;;;;;7.70;3.85;;;19.80;74.00;;;;;;5041115;28;20489;-65
2022/08/04 01:50:25;;;;;;;6.97;3.92;;;19.80;73.00;;;;;;5041326;28;20473;-65
2022/08/04 01:52:53;;;;;;;7.97;3.58;;;19.70;72.50;;;;;;5040950;28;20416;-65
2022/08/04 01:55:20;;;;;;;9.68;3.85;;;19.70;74.10;;;;;;5040883;28;20044;-65
2022/08/04 01:57:50;;;;;;;7.65;3.80;;;19.70;73.50;;;;;;5040949;28;20028;-65
2022/08/04 02:00:19;;;;;;;8.98;4.10;;;19.60;74.30;;;;;;5041074;28;20048;-65
2022/08/04 02:02:45;;;;;;;8.23;4.03;;;19.60;74.80;;;;;;5040738;28;20420;-65
2022/08/04 02:05:15;;;;;;;8.05;3.85;;;19.60;74.90;;;;;;5040964;28;20045;-65
2022/08/04 02:08:04;;;;;;;8.60;3.50;;;19.60;74.20;;;;;;5040581;28;20081;-65
2022/08/04 02:10:41;;;;;;;8.10;4.10;;;19.50;74.20;;;;;;5003654;28;20041;-65
2022/08/04 02:13:07;;;;;;;7.53;4.07;;;19.50;72.80;;;;;;5040953;28;20084;-65
2022/08/04 02:16:02;;;;;;;7.63;4.20;;;19.50;73.90;;;;;;5040608;28;20030;-65
2022/08/04 02:19:06;;;;;;;9.52;4.00;;;19.50;74.50;;;;;;5040739;28;20029;-65
2022/08/04 02:21:34;;;;;;;10.20;4.10;;;19.40;74.50;;;;;;4969852;28;20138;-65
2022/08/04 02:24:13;;;;;;;9.68;4.30;;;19.40;73.40;;;;;;5040394;28;20362;-65
2022/08/04 02:26:41;;;;;;;8.90;3.80;;;19.40;73.80;;;;;;5040835;28;20014;-65
2022/08/04 02:29:20;;;;;;;8.60;4.07;;;19.30;72.90;;;;;;5040511;28;20049;-65
2022/08/04 02:32:28;;;;;;;9.23;3.92;;;19.40;74.00;;;;;;5040527;28;20022;-65
2022/08/04 02:35:02;;;;;;;8.93;3.70;;;19.40;74.00;;;;;;5002664;28;20497;-65
2022/08/04 02:37:31;;;;;;;11.18;3.80;;;19.40;73.90;;;;;;5041799;28;20075;-65
2022/08/04 02:40:00;;;;;;;9.45;3.70;;;19.50;75.30;;;;;;5047401;28;20029;-65
2022/08/04 02:42:28;;;;;;;10.35;4.63;;;19.50;75.00;;;;;;5049091;28;20029;-65
2022/08/04 02:44:58;;;;;;;10.52;4.40;;;19.50;74.70;;;;;;5018983;28;20359;-65
2022/08/04 02:47:27;;;;;;;9.77;4.30;;;19.60;73.50;;;;;;5030288;28;20045;-65
2022/08/04 02:49:56;;;;;;;7.15;4.20;;;19.60;74.50;;;;;;5048288;28;20022;-65
2022/08/04 02:52:23;;;;;;;11.82;4.47;;;19.60;74.30;;;;;;5039892;28;20026;-65
2022/08/04 02:54:54;;;;;;;7.72;3.88;;;19.60;73.60;;;;;;5039454;28;20156;-65
2022/08/04 02:57:24;;;;;;;8.63;4.00;;;19.70;75.10;;;;;;5039813;28;20101;-65
2022/08/04 03:00:13;;;;;;;7.95;3.88;;;19.70;73.90;;;;;;5039899;28;20036;-65
2022/08/04 03:02:58;;;;;;;10.60;4.07;;;19.70;73.90;;;;;;5039370;28;20026;-65
2022/08/04 03:05:33;;;;;;;8.32;3.72;;;19.70;73.50;;;;;;5022045;28;20022;-65
2022/08/04 03:08:06;;;;;;;;;;;19.80;74.40;;;;;;5039800;28;20068;-65
2022/08/04 03:10:56;;;;;;;8.73;3.83;;;19.80;73.50;;;;;;5039525;28;19933;-65
2022/08/04 03:13:30;;;;;;;6.85;3.80;;;19.80;74.10;;;;;;5039682;28;20117;-59
2022/08/04 03:15:59;;;;;;;6.88;3.75;;;19.80;72.90;;;;;;5038949;28;20023;-59
2022/08/04 03:19:04;;;;;;;8.80;4.05;;;19.80;73.50;;;;;;5039424;28;20029;-59
2022/08/04 03:21:44;;;;;;;;;;;19.70;72.90;;;;;;5040083;28;20393;-59
2022/08/04 03:24:38;;;;;;;9.27;4.03;;;19.80;74.10;;;;;;5021368;28;19979;-59
2022/08/04 03:27:25;;;;;;;8.65;4.20;;;19.70;73.60;;;;;;5039487;28;20025;-59
2022/08/04 03:29:59;;;;;;;7.18;3.80;;;19.70;74.70;;;;;;5021184;28;20021;-59
2022/08/04 03:32:43;;;;;;;;;;;19.80;74.90;;;;;;5039654;28;20029;-59
2022/08/04 03:35:23;;;;;;;7.93;4.00;;;19.80;73.20;;;;;;5039593;28;19905;-60
2022/08/04 03:38:19;;;;;;;9.02;4.20;;;19.80;74.40;;;;;;5039333;28;20492;-59
2022/08/04 03:41:06;;;;;;;8.15;3.78;;;19.80;73.80;;;;;;5039484;28;20032;-59
2022/08/04 03:43:34;;;;;;;7.88;3.97;;;19.80;74.30;;;;;;5036339;28;20116;-59
2022/08/04 03:46:22;;;;;;;8.73;4.07;;;19.80;73.70;;;;;;5037510;28;20477;-59
2022/08/04 03:48:47;;;;;;;11.52;4.03;;;19.80;74.00;;;;;;5039118;28;20074;-60
2022/08/04 03:54:28;;;;;;;7.45;3.90;;;19.80;74.00;;;;;;5039116;28;20041;-59
2022/08/04 03:57:19;;;;;;;8.10;3.83;;;19.80;74.40;;;;;;5020563;28;20106;-59
2022/08/04 04:00:03;;;;;;;8.40;4.05;;;19.80;73.60;;;;;;5038599;28;20025;-59
2022/08/04 04:02:47;;;;;;;8.55;4.10;;;19.90;74.40;;;;;;5020706;28;20105;-59
2022/08/04 04:05:31;;;;;;;9.55;3.75;;;19.90;74.20;;;;;;5020854;28;20060;-59
2022/08/04 04:08:21;;;;;;;9.80;4.10;;;19.90;73.80;;;;;;5038330;28;20478;-59
2022/08/04 04:11:39;;;;;;;9.32;4.00;;;19.80;73.50;;;;;;5038699;28;20531;-59
2022/08/04 04:14:23;;;;;;;6.53;3.75;;;19.80;73.70;;;;;;5018394;28;20057;-60
2022/08/04 04:17:09;;;;;;;8.13;3.70;;;19.70;74.20;;;;;;5038207;28;20554;-59
2022/08/04 04:19:54;;;;;;;8.45;3.92;;;19.60;73.60;;;;;;5038600;28;20029;-59
2022/08/04 04:22:48;;;;;;;8.40;3.90;;;19.50;74.60;;;;;;5038416;28;20137;-59
2022/08/04 04:25:32;;;;;;;8.02;3.97;;;19.40;74.10;;;;;;5038279;28;20032;-59
2022/08/04 04:28:10;;;;;;;8.80;3.90;;;19.30;74.00;;;;;;5038686;28;20152;-59
2022/08/04 04:30:54;;;;;;;11.43;3.63;;;19.20;73.40;;;;;;5038319;28;20497;-59
2022/08/04 04:33:38;;;;;;;;;;;19.20;74.60;;;;;;5038763;28;20017;-59
2022/08/04 04:36:11;;;;;;;10.07;3.95;;;19.10;74.60;;;;;;5034824;28;19909;-59
2022/08/04 04:38:55;;;;;;;7.97;4.22;;;19.00;75.20;;;;;;5037867;28;20044;-59
2022/08/04 04:41:39;;;;;;;7.85;3.80;;;19.00;75.20;;;;;;5038220;28;20036;-59
2022/08/04 04:44:05;;;;;;;;;;;18.80;74.90;;;;;;5038097;28;20095;-59
2022/08/04 04:46:57;;;;;;;13.73;4.25;;;18.80;75.00;;;;;;5037862;28;19905;-59
2022/08/04 04:49:36;;;;;;;9.55;4.40;;;18.80;74.70;;;;;;5038280;28;20108;-59
2022/08/04 04:52:21;;;;;;;9.48;4.32;;;18.70;74.40;;;;;;5037978;28;20021;-59
2022/08/04 04:54:54;;;;;;;10.32;3.85;;;18.70;75.20;;;;;;5037659;28;20024;-59
2022/08/04 04:57:22;;;;;;;11.88;4.45;;;18.60;76.00;;;;;;5037961;28;20565;-59
2022/08/04 04:59:55;;;;;;;9.05;4.22;;;18.60;76.00;;;;;;5037630;28;20025;-59
2022/08/04 05:02:43;;;;;;;7.97;4.67;;;18.60;76.00;;;;;;5037735;28;20029;-59
2022/08/04 05:05:52;;;;;;;9.82;4.20;;;18.60;74.40;;;;;;5037764;28;20017;-59
2022/08/04 05:08:33;;;;;;;10.73;4.38;;;18.60;74.80;;;;;;5035255;28;20050;-61
2022/08/04 05:11:11;;;;;;;9.27;4.38;;;18.50;75.80;;;;;;5035977;28;20393;-60
2022/08/04 05:13:42;;;;;;;9.82;4.25;;;18.50;76.40;;;;;;5037702;28;20030;-59
2022/08/04 05:16:23;;;;;;;10.38;4.43;;;18.40;75.40;;;;;;5037434;28;20029;-59
2022/08/04 05:19:27;;;;;;;9.65;4.13;;;18.40;75.50;;;;;;5037307;28;20547;-59
2022/08/04 05:22:19;;;;;;;12.93;4.85;;;18.40;74.90;;;;;;5037257;28;20029;-59
2022/08/04 05:24:48;;;;;;;10.68;4.15;;;18.40;75.60;;;;;;5037289;28;20033;-59
2022/08/04 05:27:25;;;;;;;10.90;4.30;;;18.40;77.00;;;;;;5037264;28;20485;-59
2022/08/04 05:29:56;;;;;;;9.15;4.45;;;18.40;76.80;;;;;;5037339;28;20033;-59
2022/08/04 05:32:57;;;;;;;10.60;4.32;;;18.40;77.90;;;;;;5036181;28;20036;-59
2022/08/04 05:35:30;;;;;;;9.50;4.30;;;18.60;78.90;;;;;;5018890;28;20029;-59
2022/08/04 05:37:58;;;;;;;8.35;4.32;;;18.70;76.80;;;;;;5036951;28;20033;-59
2022/08/04 05:40:25;;;;;;;8.80;4.10;;;18.70;77.00;;;;;;5037084;28;20056;-59
2022/08/04 05:42:53;;;;;;;11.15;4.20;;;18.80;76.40;;;;;;5036537;28;20446;-59
2022/08/04 05:45:21;;;;;;;7.68;4.10;;;18.80;76.60;;;;;;5036421;28;20033;-59
2022/08/04 05:47:47;;;;;;;11.35;4.10;;;18.80;76.00;;;;;;5036877;28;20021;-59
2022/08/04 05:50:14;;;;;;;10.40;4.25;;;18.90;76.50;;;;;;5037148;28;20097;-59
2022/08/04 05:52:41;;;;;;;9.15;4.05;;;18.90;76.60;;;;;;5036752;28;20485;-59
2022/08/04 05:55:11;;;;;;;9.27;3.97;;;18.90;75.60;;;;;;5036216;28;20026;-59
2022/08/04 05:57:40;;;;;;;10.73;4.10;;;18.90;76.00;;;;;;5042112;28;20103;-59
2022/08/04 06:00:07;;;;;;;10.45;3.90;;;19.00;75.40;;;;;;5042655;28;20079;-59
2022/08/04 06:02:36;;;;;;;9.95;4.10;;;19.10;75.70;;;;;;5035880;28;20029;-59
2022/08/04 06:05:06;;;;;;;7.65;3.63;;;19.10;76.50;;;;;;5036314;28;20034;-59
2022/08/04 06:07:33;;;;;;;8.50;3.55;;;19.20;76.20;;;;;;5036365;28;20044;-59
2022/08/04 06:09:59;;;;;;;9.80;4.20;;;19.20;75.80;;;;;;5035193;28;20034;-59
2022/08/04 06:12:50;;;;;;;7.30;3.80;;;19.20;75.60;;;;;;5036015;28;20030;-59
2022/08/04 06:15:20;;;;;;;11.35;3.78;;;19.20;75.00;;;;;;5036589;28;20032;-60
2022/08/04 06:17:50;;;;;;;9.82;4.10;;;19.20;75.50;;;;;;5036762;28;20365;-60
2022/08/04 06:20:18;;;;;;;8.80;3.72;;;19.20;75.00;;;;;;5039701;28;20049;-59
2022/08/04 06:22:47;;;;;;;8.77;3.75;;;19.20;74.90;;;;;;5040371;28;20060;-59
2022/08/04 06:25:19;;;;;;;8.23;3.63;;;19.20;75.00;;;;;;5045495;28;20051;-59
2022/08/04 06:27:47;;;;;;;8.57;3.70;;;19.20;74.90;;;;;;5050323;28;20480;-59
2022/08/04 06:30:15;;;;;;;9.07;3.60;;;19.30;75.50;;;;;;5049202;28;20025;-59
2022/08/04 06:32:54;;;;;;;7.63;3.75;;;19.30;75.30;;;;;;5048730;28;20017;-59
2022/08/04 06:35:22;;;;;;;6.45;3.58;;;19.30;75.00;;;;;;5044259;28;20120;-59
2022/08/04 06:37:51;;;;;;;8.50;3.67;;;19.30;75.40;;;;;;5047669;28;20032;-59
2022/08/04 06:40:19;;;;;;;9.23;4.05;;;19.30;75.00;;;;;;5047992;28;20041;-59
2022/08/04 06:42:47;;;;;;;9.45;3.95;;;19.40;74.70;;;;;;5048019;28;20022;-59
2022/08/04 06:45:13;;;;;;;7.43;3.97;;;19.40;74.80;;;;;;5046086;28;20032;-59
2022/08/04 06:47:41;;;;;;;10.23;4.00;;;19.30;75.80;;;;;;5050193;28;20060;-46
2022/08/04 06:50:11;;;;;;;9.38;4.15;;;19.30;75.80;;;;;;5052211;28;20488;-44
2022/08/04 06:52:38;;;;;;;8.05;3.75;;;19.40;74.50;;;;;;5048024;28;20090;-45
2022/08/04 06:55:06;;;;;;;12.82;4.10;;;19.40;75.80;;;;;;5046649;28;20029;-45
2022/08/04 06:57:33;;;;;;;9.57;4.10;;;19.40;75.60;;;;;;5040537;28;20033;-45
2022/08/04 07:00:10;;;;;;;10.18;3.90;;;19.50;75.00;;;;;;5056560;28;20029;-45
2022/08/04 07:02:46;;;;;;;13.23;4.70;;;19.60;75.70;;;;;;5051777;28;20040;-46
2022/08/04 07:05:13;;;;;;;7.75;3.55;;;19.60;74.50;;;;;;5042962;28;20512;-48
2022/08/04 07:07:40;;;;;;;8.23;3.95;;;19.70;74.60;;;;;;5049100;28;20044;-44
2022/08/04 07:10:08;;;;;;;10.35;4.03;;;19.70;73.90;;;;;;5049596;28;20033;-44
2022/08/04 07:12:34;;;;;;;9.70;3.67;;;19.70;73.50;;;;;;5044762;28;20028;-48
2022/08/04 07:15:01;;;;;;;10.50;4.03;;;19.60;74.00;;;;;;5045556;28;20113;-48
2022/08/04 07:17:28;;;;;;;9.05;3.80;;;19.60;74.10;;;;;;5048157;28;20671;-45
2022/08/04 07:19:55;;;;;;;8.30;3.75;;;19.60;74.20;;;;;;5046913;28;20061;-44
2022/08/04 07:22:21;;;;;;;9.57;4.30;;;19.60;73.80;;;;;;5044663;28;20034;-45
2022/08/04 07:24:46;;;;;;;9.80;3.83;;;19.60;74.10;;;;;;5045725;28;20090;-48
2022/08/04 07:27:12;;;;;;;11.68;4.10;;;19.60;74.30;;;;;;5048058;28;20525;-45
2022/08/04 07:29:39;;;;;;;9.85;4.20;;;19.60;74.60;;;;;;5046805;28;20034;-44
2022/08/04 07:32:06;;;;;;;11.55;3.75;;;19.60;74.20;;;;;;5044866;28;20025;-43
2022/08/04 07:34:32;;;;;;;9.23;3.50;;;19.70;73.90;;;;;;5048110;28;20032;-45
2022/08/04 07:37:00;;;;;;;11.50;3.60;;;19.70;73.90;;;;;;5047261;28;20502;-43
2022/08/04 07:39:28;;;;;;;8.68;3.85;;;19.70;73.70;;;;;;5046471;28;20032;-50
2022/08/04 07:41:55;;;;;;;9.35;3.70;;;19.70;74.40;;;;;;5040065;28;20104;-47
2022/08/04 07:44:21;;;;;;;10.70;3.78;;;19.80;74.70;;;;;;5038466;28;20022;-42
2022/08/04 07:46:47;;;;;;;9.93;3.53;;;19.90;74.50;;;;;;5040028;28;20031;-46
2022/08/04 07:49:14;;;;;;;9.20;3.20;;;20.00;74.10;;;;;;5040247;28;20021;-44
2022/08/04 07:51:40;;;;;;;8.90;3.80;;;20.20;73.30;;;;;;5032747;28;20534;-45
2022/08/04 07:54:09;;;;;;;8.70;3.25;;;20.20;73.30;;;;;;5039079;28;20026;-45
2022/08/04 07:56:40;;;;;;;8.95;4.05;;;20.30;73.00;;;;;;5054998;28;20033;-46
2022/08/04 07:59:06;;;;;;;9.80;3.58;;;20.40;72.90;;;;;;5047736;28;20028;-45
2022/08/04 08:01:35;;;;;;;8.38;3.33;;;20.40;72.50;;;;;;5045048;28;20377;-48
2022/08/04 08:04:01;;;;;;;12.95;3.40;;;20.50;72.70;;;;;;5047297;28;20512;-46
2022/08/04 08:06:28;;;;;;;12.48;3.47;;;20.60;72.10;;;;;;5049046;28;20512;-47
2022/08/04 08:09:01;;;;;;;10.45;3.53;;;20.60;70.80;;;;;;5049499;28;20660;-43
2022/08/04 08:11:27;;;;;;;9.60;3.35;;;20.60;71.50;;;;;;5043902;28;20074;-42
2022/08/04 08:13:53;;;;;;;6.97;2.90;;;20.70;71.40;;;;;;5044915;28;20033;-42
2022/08/04 08:16:22;;;;;;;8.82;3.00;;;20.70;71.60;;;;;;5050150;28;20036;-58
2022/08/04 08:18:48;;;;;;;8.70;3.40;;;20.80;68.70;;;;;;5038131;28;20053;-58
2022/08/04 08:21:14;;;;;;;9.50;2.80;;;20.70;68.30;;;;;;5037835;28;20392;-58
2022/08/04 08:23:40;;;;;;;9.68;2.92;;;20.70;68.50;;;;;;5040674;28;20017;-59
2022/08/04 08:26:06;;;;;;;8.52;3.40;;;20.70;68.30;;;;;;5056252;28;20040;-59
2022/08/04 08:28:32;;;;;;;9.30;3.40;;;20.70;68.00;;;;;;5058025;28;20025;-58
2022/08/04 08:30:57;;;;;;;10.05;3.33;;;20.70;67.40;;;;;;5047071;28;20485;-59
2022/08/04 08:33:24;;;;;;;8.80;2.90;;;20.70;67.90;;;;;;5030592;28;20033;-59
2022/08/04 08:36:08;;;;;;;10.40;4.32;;;20.70;68.30;;;;;;5022475;28;20028;-59
2022/08/04 08:39:00;;;;;;;9.02;3.28;;;20.70;66.40;;;;;;5037531;28;20030;-59
2022/08/04 08:41:32;;;;;;;6.88;2.85;;;20.70;68.60;;;;;;5028097;28;20041;-59
2022/08/04 08:44:10;;;;;;;10.00;3.38;;;20.80;68.00;;;;;;5037496;28;20025;-59
2022/08/04 08:46:57;;;;;;;10.40;2.83;;;20.90;68.30;;;;;;5037566;28;20029;-59
2022/08/04 08:49:48;;;;;;;8.70;3.35;;;21.00;67.60;;;;;;5037331;28;20026;-60
2022/08/04 08:52:35;;;;;;;9.38;3.28;;;21.10;67.90;;;;;;5037077;28;20053;-59
2022/08/04 08:55:30;;;;;;;6.60;2.80;;;21.10;66.30;;;;;;5037335;28;20018;-59
2022/08/04 08:58:33;;;;;;;9.55;3.17;;;21.20;67.40;;;;;;5035099;28;20032;-59
2022/08/04 09:01:36;;;;;;;10.70;3.33;;;21.30;67.20;;;;;;5036859;28;20022;-59
2022/08/04 09:04:23;;;;;;;10.43;3.42;;;21.30;67.20;;;;;;5046116;28;20083;-60
2022/08/04 09:07:26;;;;;;;8.65;3.03;;;21.40;66.10;;;;;;5042910;28;20125;-60
2022/08/04 09:10:23;;;;;;;9.18;2.83;;;21.40;66.40;;;;;;5025368;28;20038;-59
2022/08/04 09:12:56;;;;;;;6.75;2.97;;;21.50;66.20;;;;;;5015327;28;20029;-59
2022/08/04 09:16:01;;;;;;;5.95;3.08;;;21.60;65.10;;;;;;5024919;28;20026;-59
2022/08/04 09:18:33;;;;;;;8.48;2.88;;;21.70;65.00;;;;;;5053150;28;20029;-59
2022/08/04 09:21:12;;;;;;;8.77;3.30;;;21.70;65.90;;;;;;5035272;28;20078;-59
2022/08/04 09:24:03;;;;;;;6.10;2.63;;;21.90;65.30;;;;;;5047028;28;20033;-59
2022/08/04 09:26:37;;;;;;;9.80;2.85;;;22.00;64.60;;;;;;5034836;28;20030;-59
2022/08/04 09:29:12;;;;;;;7.35;2.83;;;22.10;64.50;;;;;;5035673;28;20025;-59
2022/08/04 09:32:03;;;;;;;7.18;2.63;;;22.20;63.90;;;;;;5037804;28;20104;-59
2022/08/04 09:34:48;;;;;;;7.68;2.75;;;22.40;63.30;;;;;;5044938;28;20185;-59
2022/08/04 09:37:32;;;;;;;10.23;3.13;;;22.60;63.60;;;;;;5056061;28;20381;-59
2022/08/04 09:40:06;;;;;;;7.63;2.63;;;22.80;63.70;;;;;;5056583;28;20075;-59
2022/08/04 09:42:43;;;;;;;7.07;2.78;;;23.00;60.90;;;;;;5051737;28;20060;-59
2022/08/04 09:45:32;;;;;;;9.05;2.63;;;23.30;60.70;;;;;;5052146;28;20025;-59
2022/08/04 09:48:06;;;;;;;7.43;2.70;;;23.60;60.70;;;;;;5050007;28;20059;-59
2022/08/04 09:50:44;;;;;;;9.40;2.72;;;23.90;56.00;;;;;;5055212;28;20021;-59
2022/08/04 09:53:43;;;;;;;10.55;2.60;;;24.10;56.30;;;;;;5056393;28;20033;-59
2022/08/04 09:56:19;;;;;;;5.10;2.10;;;24.30;59.20;;;;;;5049056;28;20029;-60
2022/08/04 09:59:16;;;;;;;5.80;2.40;;;24.70;54.00;;;;;;5039437;28;20033;-60
2022/08/04 10:01:43;;;;;;;6.90;2.30;;;25.00;58.80;;;;;;5039940;28;20084;-59
2022/08/04 10:04:13;;;;;;;8.95;2.30;;;25.40;58.80;;;;;;5040321;28;20037;-59
2022/08/04 10:06:52;;;;;;;9.27;2.40;;;25.70;57.20;;;;;;5041997;28;20041;-59
2022/08/04 10:09:27;;;;;;;6.13;2.20;;;26.00;53.40;;;;;;5036844;28;20026;-59
2022/08/04 10:12:02;;;;;;;6.20;2.20;;;26.40;57.10;;;;;;5040634;28;20040;-59
2022/08/04 10:14:52;;;;;;;7.22;2.35;;;26.70;55.50;;;;;;5054099;28;20060;-60
2022/08/04 10:17:36;;;;;;;6.22;2.13;;;27.00;55.20;;;;;;5051805;28;20028;-59
2022/08/04 10:20:27;;;;;;;8.80;2.17;;;27.30;56.70;;;;;;5034426;28;20108;-59
2022/08/04 10:23:31;;;;;;;5.75;2.15;;;27.60;53.40;;;;;;5059595;28;20044;-60
2022/08/04 10:26:09;;;;;;;7.10;2.13;;;28.10;54.00;;;;;;4992851;28;20038;-59
2022/08/04 10:28:48;;;;;;;5.60;2.00;;;28.40;51.00;;;;;;5040460;28;20389;-60
2022/08/04 10:31:23;;;;;;;7.80;1.80;;;28.50;47.50;;;;;;5051643;28;20024;-60
2022/08/04 10:33:57;;;;;;;4.90;1.90;;;28.70;44.40;;;;;;5046333;28;20026;-60
2022/08/04 10:36:29;;;;;;;6.10;1.98;;;28.90;44.80;;;;;;5045328;28;20116;-60
2022/08/04 10:39:02;;;;;;;6.40;1.95;;;29.40;47.20;;;;;;5059902;28;20032;-60
2022/08/04 10:41:41;;;;;;;6.30;1.73;;;29.70;45.70;;;;;;5038293;28;20033;-60
2022/08/04 10:44:31;;;;;;;4.65;2.00;;;30.00;50.00;;;;;;5046780;28;20041;-60
2022/08/04 10:47:03;;;;;;;3.78;1.60;;;30.10;48.20;;;;;;5053608;28;20036;-60
2022/08/04 10:49:45;;;;;;;7.50;1.80;;;30.20;45.30;;;;;;5053381;28;20022;-63
2022/08/04 10:52:22;;;;;;;6.25;2.13;;;30.30;48.70;;;;;;5044937;28;20018;-60
2022/08/04 10:54:57;;;;;;;3.70;1.50;;;30.50;42.50;;;;;;5019186;28;20025;-60
2022/08/04 10:57:28;;;;;;;6.50;2.15;;;31.00;44.30;;;;;;5040404;28;20060;-60
2022/08/04 11:00:00;;;;;;;3.63;1.73;;;31.30;45.50;;;;;;5054037;28;20037;-60
2022/08/04 11:02:31;;;;;;;6.78;1.95;;;31.10;43.30;;;;;;5042027;28;20021;-59
2022/08/04 11:05:16;;;;;;;4.22;1.60;;;30.90;44.60;;;;;;5058085;28;20781;-60
2022/08/04 11:07:46;;;;;;;5.43;1.65;;;31.20;41.70;;;;;;5041879;28;20095;-60
2022/08/04 11:10:13;;;;;;;7.00;1.83;;;31.50;45.00;;;;;;5037393;28;20388;-60
2022/08/04 11:12:41;;;;;;;6.80;1.83;;;31.70;41.90;;;;;;5037606;28;20047;-60
2022/08/04 11:15:13;;;;;;;6.40;1.70;;;31.90;39.50;;;;;;5037541;28;20068;-60
2022/08/04 11:17:45;;;;;;;5.45;1.60;;;32.00;45.00;;;;;;5019188;28;20116;-60
2022/08/04 11:20:56;;;;;;;9.73;2.20;;;32.20;43.90;;;;;;5020787;28;20029;-60
2022/08/04 11:23:27;;;;;;;6.88;1.80;;;32.20;42.90;;;;;;4959095;29;20042;-60
2022/08/04 11:26:12;;;;;;;4.78;1.70;;;32.00;41.10;;;;;;4959613;29;20051;-64
2022/08/04 11:29:17;;;;;;;5.45;1.90;;;31.90;39.80;;;;;;5009599;28;20559;-64
2022/08/04 11:31:46;;;;;;;6.60;1.88;;;31.90;39.40;;;;;;5038754;28;20033;-64
2022/08/04 11:34:21;;;;;;;5.70;2.00;;;31.70;40.10;;;;;;5038176;28;20108;-64
2022/08/04 11:37:05;;;;;;;6.03;2.00;;;32.00;39.20;;;;;;5037909;28;20523;-64
2022/08/04 11:40:02;;;;;;;7.13;2.15;;;32.40;38.80;;;;;;5038033;28;20061;-64
2022/08/04 11:42:38;;;;;;;7.72;2.20;;;33.00;40.60;;;;;;5039162;28;20029;-65
2022/08/04 11:45:07;;;;;;;7.40;2.10;;;33.50;42.00;;;;;;5038983;28;20032;-65
2022/08/04 11:48:00;;;;;;;6.15;1.90;;;33.50;38.10;;;;;;5039069;28;20026;-65
2022/08/04 11:50:48;;;;;;;6.03;2.00;;;33.40;39.60;;;;;;5039391;28;20022;-65
2022/08/04 11:53:18;;;;;;;5.05;2.10;;;33.30;38.50;;;;;;5039262;28;20024;-65
2022/08/04 11:55:48;;;;;;;8.65;2.20;;;33.10;38.00;;;;;;5038694;28;20087;-65
2022/08/04 11:58:15;;;;;;;8.40;2.22;;;33.10;37.80;;;;;;5038158;28;20045;-65
2022/08/04 12:01:04;;;;;;;6.93;2.40;;;33.30;37.50;;;;;;5038470;28;20092;-65
2022/08/04 12:03:49;;;;;;;5.20;2.10;;;33.60;39.60;;;;;;5031882;28;20098;-65
2022/08/04 12:06:39;;;;;;;5.97;2.17;;;33.90;39.50;;;;;;5030950;28;20076;-58
2022/08/04 12:09:26;;;;;;;6.10;2.20;;;33.90;38.00;;;;;;5038623;28;20036;-63
2022/08/04 12:12:10;;;;;;;3.97;1.90;;;33.90;38.20;;;;;;5038043;28;20077;-64
2022/08/04 12:14:57;;;;;;;6.90;2.08;;;34.00;37.60;;;;;;5038116;28;20033;-64
2022/08/04 12:17:49;;;;;;;4.85;2.10;;;34.20;38.40;;;;;;5037993;28;20028;-64
2022/08/04 12:20:20;;;;;;;6.47;2.10;;;34.60;38.20;;;;;;5031996;28;20029;-64
2022/08/04 12:22:50;;;;;;;7.60;2.22;;;34.50;34.00;;;;;;5051744;28;20025;-64
2022/08/04 12:25:21;;;;;;;5.18;1.98;;;34.50;35.60;;;;;;5037762;28;20034;-63
2022/08/04 12:27:56;;;;;;;5.68;1.90;;;34.50;34.40;;;;;;5040897;28;20420;-64
2022/08/04 12:30:22;;;;;;;6.25;2.10;;;34.70;34.00;;;;;;5037056;28;20024;-63
2022/08/04 12:33:18;;;;;;;5.22;1.77;;;34.80;34.60;;;;;;5046180;28;20021;-64
2022/08/04 12:35:57;;;;;;;8.07;2.10;;;35.10;35.30;;;;;;5041116;28;20480;-64
2022/08/04 12:38:26;;;;;;;8.15;2.00;;;35.40;33.70;;;;;;5044632;28;20024;-64
2022/08/04 12:40:57;;;;;;;4.40;1.65;;;35.70;31.80;;;;;;5056995;28;20024;-64
2022/08/04 12:43:28;;;;;;;6.13;1.90;;;35.60;33.50;;;;;;5048077;28;20072;-63
2022/08/04 12:45:58;;;;;;;6.55;2.00;;;35.20;33.20;;;;;;5045647;28;20028;-63
2022/08/04 12:48:26;;;;;;;6.32;1.85;;;34.70;31.00;;;;;;5054303;28;20013;-63
2022/08/04 12:50:54;;;;;;;7.03;1.83;;;34.20;31.50;;;;;;5053660;28;20033;-64
2022/08/04 12:53:28;;;;;;;4.65;1.77;;;33.80;32.60;;;;;;5039743;28;20021;-63
2022/08/04 12:55:56;;;;;;;8.27;1.98;;;33.50;33.60;;;;;;5037530;28;20021;-63
2022/08/04 12:58:29;;;;;;;5.32;1.95;;;33.70;34.50;;;;;;5037613;28;20453;-64
2022/08/04 13:01:01;;;;;;;4.18;1.60;;;34.00;33.30;;;;;;5041151;28;20037;-64
2022/08/04 13:03:41;;;;;;;4.97;1.60;;;34.50;33.10;;;;;;5045702;28;20492;-63
2022/08/04 13:06:09;;;;;;;5.47;1.85;;;34.60;33.10;;;;;;5029639;28;20033;-63
2022/08/04 13:08:38;;;;;;;7.40;1.70;;;34.40;32.10;;;;;;5049525;28;20041;-63
2022/08/04 13:11:06;;;;;;;4.15;1.65;;;34.10;31.20;;;;;;5053250;28;20024;-64
2022/08/04 13:13:34;;;;;;;4.63;1.52;;;33.70;32.20;;;;;;5057389;28;20100;-64
2022/08/04 13:16:07;;;;;;;3.35;1.42;;;33.10;30.90;;;;;;5054270;28;20033;-63
2022/08/04 13:18:38;;;;;;;4.30;1.30;;;32.80;31.60;;;;;;5044490;28;20045;-64
2022/08/04 13:21:16;;;;;;;4.53;1.63;;;32.40;31.20;;;;;;5042516;28;20037;-64
2022/08/04 13:23:46;;;;;;;5.13;1.67;;;32.20;31.30;;;;;;5037116;28;20021;-64
2022/08/04 13:26:16;;;;;;;3.65;1.58;;;32.10;32.80;;;;;;5037243;28;20160;-63
2022/08/04 13:28:45;;;;;;;4.40;1.55;;;32.00;32.30;;;;;;5036269;28;20021;-64
2022/08/04 13:31:14;;;;;;;4.72;1.67;;;31.80;31.80;;;;;;5036917;28;20022;-63
2022/08/04 13:33:43;;;;;;;2.85;1.63;;;31.80;33.10;;;;;;5036451;28;20083;-63
2022/08/04 13:36:10;;;;;;;4.28;1.52;;;32.10;32.50;;;;;;5039348;28;20083;-63
2022/08/04 13:38:39;;;;;;;5.47;1.55;;;32.30;30.30;;;;;;5043951;28;20029;-63